createdAt,value
2018-06-10T00:02:33.625Z,21.70
2018-06-10T00:05:07.979Z,21.60
2018-06-10T00:07:42.622Z,21.60
2018-06-10T00:10:16.900Z,21.40
2018-06-10T00:12:51.166Z,21.40
2018-06-10T00:15:25.418Z,21.30
2018-06-10T00:17:59.585Z,21.30
2018-06-10T00:20:33.952Z,21.20
2018-06-10T00:23:08.149Z,21.20
2018-06-10T00:25:42.422Z,21.20
2018-06-10T00:28:21.836Z,21.20
2018-06-10T00:30:56.210Z,21.10
2018-06-10T00:33:30.421Z,21.10
2018-06-10T00:36:04.920Z,21.10
2018-06-10T00:38:39.271Z,21.00
2018-06-10T00:41:13.785Z,21.00
2018-06-10T00:43:48.112Z,21.00
2018-06-10T00:46:22.468Z,21.00
2018-06-10T00:48:56.845Z,21.00
2018-06-10T00:51:31.152Z,21.10
2018-06-10T00:54:05.549Z,21.10
2018-06-10T00:56:49.221Z,21.10
2018-06-10T00:59:23.520Z,21.10
2018-06-10T01:01:57.851Z,21.10
2018-06-10T01:04:32.178Z,21.10
2018-06-10T01:07:06.529Z,21.10
2018-06-10T01:09:40.920Z,21.20
2018-06-10T01:12:15.339Z,21.20
2018-06-10T01:14:49.556Z,21.20
2018-06-10T01:17:23.860Z,21.20
2018-06-10T01:19:58.256Z,21.10
2018-06-10T01:22:33.416Z,21.10
2018-06-10T01:25:07.596Z,21.10
2018-06-10T01:27:41.858Z,21.10
2018-06-10T01:30:16.356Z,21.10
2018-06-10T01:32:53.652Z,21.10
2018-06-10T01:35:27.899Z,21.10
2018-06-10T01:38:02.300Z,21.10
2018-06-10T01:40:36.528Z,21.10
2018-06-10T01:43:10.741Z,21.20
2018-06-10T01:45:45.238Z,21.30
2018-06-10T01:48:19.589Z,21.30
2018-06-10T01:50:53.895Z,21.30
2018-06-10T01:53:28.300Z,21.30
2018-06-10T01:56:02.543Z,21.30
2018-06-10T01:58:36.913Z,21.30
2018-06-10T02:01:11.302Z,21.30
2018-06-10T02:03:45.572Z,21.20
2018-06-10T02:06:19.826Z,21.10
2018-06-10T02:08:54.212Z,21.10
2018-06-10T02:11:28.565Z,21.10
2018-06-10T02:14:02.992Z,21.00
2018-06-10T02:16:37.308Z,21.00
2018-06-10T02:19:11.673Z,21.00
2018-06-10T02:21:46.000Z,20.90
2018-06-10T02:24:20.377Z,20.90
2018-06-10T02:26:54.712Z,20.90
2018-06-10T02:29:28.955Z,20.90
2018-06-10T02:32:03.727Z,20.80
2018-06-10T02:34:37.963Z,20.80
2018-06-10T02:37:12.176Z,20.70
2018-06-10T02:39:46.581Z,20.70
2018-06-10T02:42:20.949Z,20.70
2018-06-10T02:44:55.117Z,20.60
2018-06-10T02:47:29.504Z,20.60
2018-06-10T02:52:37.820Z,20.60
2018-06-10T02:55:12.201Z,20.60
2018-06-10T02:57:46.494Z,20.60
2018-06-10T03:00:20.807Z,20.60
2018-06-10T03:05:29.357Z,20.50
2018-06-10T03:08:03.677Z,20.50
2018-06-10T03:10:38.088Z,20.50
2018-06-10T03:13:12.441Z,20.40
2018-06-10T03:15:46.784Z,20.40
2018-06-10T03:18:21.505Z,20.40
2018-06-10T03:20:55.900Z,20.30
2018-06-10T03:23:30.212Z,20.30
2018-06-10T03:26:04.508Z,20.20
2018-06-10T03:28:38.875Z,20.10
2018-06-10T03:31:13.129Z,20.20
2018-06-10T03:33:47.483Z,20.10
2018-06-10T03:36:21.713Z,20.10
2018-06-10T03:38:56.543Z,20.00
2018-06-10T03:41:30.829Z,20.00
2018-06-10T03:44:05.792Z,19.90
2018-06-10T03:46:40.197Z,19.90
2018-06-10T03:49:14.586Z,19.90
2018-06-10T03:51:49.536Z,19.90
2018-06-10T03:54:23.807Z,20.00
2018-06-10T03:56:58.125Z,20.00
2018-06-10T03:59:32.390Z,19.90
2018-06-10T04:02:06.595Z,19.90
2018-06-10T04:04:40.929Z,19.90
2018-06-10T04:07:15.348Z,20.00
2018-06-10T04:09:49.673Z,20.00
2018-06-10T04:12:24.063Z,19.90
2018-06-10T04:14:58.387Z,19.80
2018-06-10T04:17:32.541Z,19.80
2018-06-10T04:20:06.965Z,19.80
2018-06-10T04:22:41.433Z,19.90
2018-06-10T04:25:15.842Z,19.80
2018-06-10T04:27:50.905Z,19.80
2018-06-10T04:30:25.244Z,19.80
2018-06-10T04:32:59.587Z,19.80
2018-06-10T04:35:33.872Z,19.80
2018-06-10T04:38:08.064Z,19.70
2018-06-10T04:40:42.432Z,19.80
2018-06-10T04:43:16.732Z,19.70
2018-06-10T04:45:51.600Z,19.70
2018-06-10T04:48:25.878Z,19.80
2018-06-10T04:51:00.182Z,19.70
2018-06-10T04:53:34.541Z,19.70
2018-06-10T04:56:08.890Z,19.60
2018-06-10T04:58:43.128Z,19.60
2018-06-10T05:01:18.106Z,19.60
2018-06-10T05:03:52.400Z,19.70
2018-06-10T05:06:26.731Z,19.60
2018-06-10T05:09:00.945Z,19.60
2018-06-10T05:11:35.159Z,19.60
2018-06-10T05:14:09.582Z,19.60
2018-06-10T05:16:43.844Z,19.70
2018-06-10T05:19:18.287Z,19.60
2018-06-10T05:21:52.748Z,19.70
2018-06-10T05:24:27.208Z,19.80
2018-06-10T05:27:01.493Z,19.80
2018-06-10T05:29:35.794Z,19.80
2018-06-10T05:32:10.214Z,19.60
2018-06-10T05:34:44.568Z,19.70
2018-06-10T05:37:18.870Z,19.70
2018-06-10T05:39:53.093Z,19.70
2018-06-10T05:42:27.445Z,19.60
2018-06-10T05:45:01.787Z,19.60
2018-06-10T05:47:35.968Z,19.40
2018-06-10T05:50:10.382Z,19.30
2018-06-10T05:52:44.657Z,19.40
2018-06-10T05:55:19.542Z,19.30
2018-06-10T05:57:53.914Z,19.30
2018-06-10T06:00:28.351Z,19.30
2018-06-10T06:03:02.853Z,19.30
2018-06-10T06:05:37.124Z,19.40
2018-06-10T06:08:11.356Z,19.40
2018-06-10T06:10:45.620Z,19.40
2018-06-10T06:13:19.952Z,19.30
2018-06-10T06:15:54.355Z,19.40
2018-06-10T06:18:28.652Z,19.60
2018-06-10T06:21:02.971Z,19.70
2018-06-10T06:23:37.313Z,19.70
2018-06-10T06:26:11.714Z,19.90
2018-06-10T06:28:46.030Z,20.00
2018-06-10T06:31:20.409Z,20.10
2018-06-10T06:33:54.764Z,20.20
2018-06-10T06:36:29.055Z,20.40
2018-06-10T06:39:05.113Z,20.60
2018-06-10T06:41:40.558Z,20.60
2018-06-10T06:44:15.256Z,20.60
2018-06-10T06:46:49.503Z,20.70
2018-06-10T06:49:24.376Z,20.70
2018-06-10T06:52:00.130Z,20.80
2018-06-10T06:54:35.393Z,21.10
2018-06-10T06:57:09.770Z,21.10
2018-06-10T06:59:45.347Z,21.10
2018-06-10T07:02:20.422Z,21.20
2018-06-10T07:04:54.693Z,21.20
2018-06-10T07:07:29.415Z,21.40
2018-06-10T07:10:04.184Z,21.40
2018-06-10T07:12:38.421Z,21.10
2018-06-10T07:15:12.692Z,21.10
2018-06-10T07:17:47.162Z,21.30
2018-06-10T07:20:21.325Z,21.60
2018-06-10T07:22:55.554Z,21.60
2018-06-10T07:25:29.746Z,21.80
2018-06-10T07:28:04.000Z,21.90
2018-06-10T07:30:39.557Z,22.00
2018-06-10T07:33:13.784Z,22.10
2018-06-10T07:35:48.106Z,21.90
2018-06-10T07:38:22.400Z,21.80
2018-06-10T07:40:57.628Z,21.50
2018-06-10T07:43:31.955Z,21.40
2018-06-10T07:46:06.429Z,21.50
2018-06-10T07:48:40.784Z,21.50
2018-06-10T07:51:15.136Z,21.50
2018-06-10T07:53:49.520Z,21.30
2018-06-10T07:56:23.777Z,21.20
2018-06-10T07:58:58.761Z,21.10
2018-06-10T08:01:33.981Z,21.00
2018-06-10T08:04:08.225Z,20.80
2018-06-10T08:09:16.924Z,20.90
2018-06-10T08:14:26.206Z,20.90
2018-06-10T08:17:00.844Z,20.90
2018-06-10T08:22:09.885Z,20.80
2018-06-10T08:24:44.374Z,20.80
2018-06-10T08:27:18.784Z,21.00
2018-06-10T08:29:53.105Z,21.10
2018-06-10T08:35:01.593Z,21.10
2018-06-10T08:37:35.997Z,21.20
2018-06-10T08:40:10.601Z,21.10
2018-06-10T08:42:44.926Z,21.30
2018-06-10T08:45:19.247Z,21.20
2018-06-10T08:47:53.672Z,21.10
2018-06-10T08:50:28.152Z,21.10
2018-06-10T08:53:04.723Z,21.00
2018-06-10T08:55:39.278Z,20.80
2018-06-10T08:58:13.557Z,20.90
2018-06-10T09:00:48.392Z,21.30
2018-06-10T09:03:23.336Z,21.20
2018-06-10T09:05:57.641Z,21.20
2018-06-10T09:08:32.924Z,21.10
2018-06-10T09:11:07.321Z,21.10
2018-06-10T09:13:41.686Z,20.80
2018-06-10T09:16:15.964Z,20.80
2018-06-10T09:18:50.376Z,20.80
2018-06-10T09:21:24.810Z,20.70
2018-06-10T09:23:59.608Z,20.80
2018-06-10T09:26:35.185Z,20.80
2018-06-10T09:29:09.497Z,20.70
2018-06-10T09:31:43.794Z,20.60
2018-06-10T09:34:18.248Z,20.20
2018-06-10T09:36:53.609Z,20.00
2018-06-10T09:39:28.488Z,19.90
2018-06-10T09:42:02.948Z,19.80
2018-06-10T09:44:38.182Z,19.70
2018-06-10T09:47:12.380Z,19.90
2018-06-10T09:49:47.910Z,19.90
2018-06-10T09:52:23.755Z,19.90
2018-06-10T09:54:57.987Z,20.00
2018-06-10T09:57:32.523Z,20.00
2018-06-10T10:00:11.128Z,20.10
2018-06-10T10:02:45.500Z,20.10
2018-06-10T10:05:20.600Z,20.00
2018-06-10T10:07:54.892Z,20.00
2018-06-10T10:10:29.110Z,19.90
2018-06-10T10:13:03.341Z,19.80
2018-06-10T10:15:37.796Z,19.70
2018-06-10T10:18:11.971Z,19.60
2018-06-10T10:20:46.454Z,19.50
2018-06-10T10:23:21.314Z,19.60
2018-06-10T10:25:55.546Z,19.50
2018-06-10T10:28:30.189Z,19.50
2018-06-10T10:31:04.593Z,19.60
2018-06-10T10:33:38.905Z,19.60
2018-06-10T10:36:13.141Z,19.60
2018-06-10T10:38:47.443Z,19.70
2018-06-10T10:41:21.856Z,19.80
2018-06-10T10:43:56.105Z,19.80
2018-06-10T10:46:31.077Z,19.90
2018-06-10T10:49:05.473Z,20.00
2018-06-10T10:51:39.816Z,20.10
2018-06-10T10:54:14.058Z,20.50
2018-06-10T10:56:48.192Z,20.60
2018-06-10T10:59:22.429Z,20.80
2018-06-10T11:01:56.780Z,21.00
2018-06-10T11:04:31.032Z,21.00
2018-06-10T11:07:05.365Z,21.00
2018-06-10T11:09:39.804Z,21.10
2018-06-10T11:12:14.023Z,21.60
2018-06-10T11:17:22.386Z,22.10
2018-06-10T11:19:56.755Z,22.10
2018-06-10T11:22:30.951Z,22.00
2018-06-10T11:27:39.185Z,21.90
2018-06-10T11:30:13.600Z,21.90
2018-06-10T11:32:48.470Z,21.90
2018-06-10T11:35:22.713Z,21.80
2018-06-10T11:37:57.033Z,21.80
2018-06-10T11:40:32.342Z,21.60
2018-06-10T11:43:06.804Z,21.90
2018-06-10T11:45:41.289Z,22.20
2018-06-10T11:48:15.725Z,22.20
2018-06-10T11:50:50.343Z,22.50
2018-06-10T11:53:24.745Z,22.80
2018-06-10T11:58:33.836Z,22.50
2018-06-10T12:01:09.144Z,22.50
2018-06-10T12:03:48.973Z,22.70
2018-06-10T12:06:24.687Z,23.00
2018-06-10T12:08:59.212Z,23.30
2018-06-10T12:11:33.409Z,24.20
2018-06-10T12:14:08.728Z,24.50
2018-06-10T12:16:43.170Z,25.50
2018-06-10T12:19:17.511Z,26.30
2018-06-10T12:21:52.017Z,26.90
2018-06-10T12:24:26.496Z,28.20
2018-06-10T12:27:02.310Z,29.60
2018-06-10T12:29:37.554Z,30.00
2018-06-10T12:32:13.270Z,28.80
2018-06-10T12:34:47.498Z,27.30
2018-06-10T12:37:27.857Z,26.10
2018-06-10T12:40:02.791Z,25.90
2018-06-10T12:42:37.789Z,25.40
2018-06-10T12:45:12.579Z,24.50
2018-06-10T12:47:46.937Z,24.40
2018-06-10T12:50:21.185Z,24.00
2018-06-10T12:52:55.922Z,24.00
2018-06-10T12:55:30.224Z,23.60
2018-06-10T12:58:06.260Z,23.60
2018-06-10T13:00:41.863Z,23.80
2018-06-10T13:03:16.265Z,24.30
2018-06-10T13:05:51.085Z,25.10
2018-06-10T13:08:26.328Z,25.50
2018-06-10T13:11:00.960Z,26.70
2018-06-10T13:13:35.461Z,26.60
2018-06-10T13:16:17.576Z,25.80
2018-06-10T13:18:52.624Z,26.60
2018-06-10T13:21:28.260Z,27.00
2018-06-10T13:24:03.190Z,26.10
2018-06-10T13:26:37.761Z,25.70
2018-06-10T13:29:12.040Z,24.60
2018-06-10T13:31:46.234Z,23.90
2018-06-10T13:34:20.794Z,23.70
2018-06-10T13:36:55.202Z,23.60
2018-06-10T13:39:31.877Z,23.50
2018-06-10T13:42:06.311Z,24.50
2018-06-10T13:44:40.870Z,25.40
2018-06-10T13:47:15.257Z,24.80
2018-06-10T13:49:49.976Z,24.10
2018-06-10T13:52:24.321Z,23.80
2018-06-10T13:54:58.744Z,23.60
2018-06-10T13:57:33.423Z,24.30
2018-06-10T14:00:08.104Z,26.20
2018-06-10T14:02:42.783Z,28.40
2018-06-10T14:05:17.313Z,28.60
2018-06-10T14:10:26.506Z,29.60
2018-06-10T14:13:00.920Z,29.10
2018-06-10T14:15:35.144Z,29.70
2018-06-10T14:18:09.518Z,31.20
2018-06-10T14:20:43.988Z,32.40
2018-06-10T14:23:24.384Z,31.70
2018-06-10T14:25:59.283Z,30.00
2018-06-10T14:28:33.671Z,28.90
2018-06-10T14:31:08.431Z,30.80
2018-06-10T14:33:44.888Z,31.30
2018-06-10T14:36:19.157Z,31.70
2018-06-10T14:38:53.640Z,32.00
2018-06-10T14:41:28.310Z,31.50
2018-06-10T14:44:06.156Z,30.20
2018-06-10T14:46:42.066Z,29.30
2018-06-10T14:49:17.340Z,28.80
2018-06-10T14:51:51.732Z,29.60
2018-06-10T14:54:28.128Z,29.20
2018-06-10T14:57:02.590Z,29.40
2018-06-10T14:59:37.295Z,30.40
2018-06-10T15:02:11.871Z,31.10
2018-06-10T15:04:46.591Z,31.70
2018-06-10T15:07:20.911Z,31.50
2018-06-10T15:09:55.269Z,32.40
2018-06-10T15:12:29.601Z,31.30
2018-06-10T15:15:04.036Z,30.00
2018-06-10T15:17:38.291Z,29.30
2018-06-10T15:22:46.684Z,26.70
2018-06-10T15:25:20.884Z,26.30
2018-06-10T15:27:55.788Z,26.10
2018-06-10T15:30:30.269Z,26.00
2018-06-10T15:33:04.556Z,25.70
2018-06-10T15:35:39.879Z,25.50
2018-06-10T15:38:14.117Z,25.50
2018-06-10T15:40:48.609Z,25.70
2018-06-10T15:43:22.959Z,25.20
2018-06-10T15:45:57.156Z,25.10
2018-06-10T15:48:31.342Z,24.90
2018-06-10T15:51:05.682Z,24.70
2018-06-10T15:53:40.520Z,24.90
2018-06-10T15:56:14.855Z,25.70
2018-06-10T15:58:49.194Z,25.90
2018-06-10T16:01:23.614Z,25.80
2018-06-10T16:03:57.996Z,25.70
2018-06-10T16:06:32.129Z,25.80
2018-06-10T16:09:07.570Z,25.50
2018-06-10T16:11:41.713Z,25.10
2018-06-10T16:14:16.152Z,25.20
2018-06-10T16:16:50.581Z,25.40
2018-06-10T16:19:24.818Z,25.30
2018-06-10T16:21:59.693Z,25.50
2018-06-10T16:27:08.294Z,27.90
2018-06-10T16:29:42.507Z,28.10
2018-06-10T16:32:16.782Z,29.00
2018-06-10T16:34:51.093Z,28.70
2018-06-10T16:37:25.510Z,28.90
2018-06-10T16:39:59.845Z,30.60
2018-06-10T16:42:34.137Z,30.60
2018-06-10T16:45:08.563Z,29.50
2018-06-10T16:47:42.772Z,28.10
2018-06-10T16:50:17.113Z,27.30
2018-06-10T16:52:51.396Z,27.00
2018-06-10T16:55:25.548Z,26.80
2018-06-10T16:57:59.800Z,27.70
2018-06-10T17:00:34.020Z,29.60
2018-06-10T17:03:08.402Z,30.50
2018-06-10T17:05:43.313Z,31.00
2018-06-10T17:08:18.464Z,29.80
2018-06-10T17:10:53.081Z,28.60
2018-06-10T17:13:27.421Z,26.80
2018-06-10T17:16:02.560Z,25.70
2018-06-10T17:18:37.097Z,25.10
2018-06-10T17:21:11.598Z,24.50
2018-06-10T17:23:46.110Z,24.40
2018-06-10T17:26:21.758Z,24.00
2018-06-10T17:28:56.191Z,23.60
2018-06-10T17:31:30.558Z,23.50
2018-06-10T17:34:06.849Z,23.20
2018-06-10T17:36:41.273Z,23.30
2018-06-10T17:39:30.713Z,23.40
2018-06-10T17:42:07.235Z,23.50
2018-06-10T17:44:52.678Z,23.40
2018-06-10T17:47:34.357Z,23.50
2018-06-10T17:50:08.825Z,23.40
2018-06-10T17:55:35.683Z,23.10
2018-06-10T17:58:12.865Z,23.10
2018-06-10T18:00:47.376Z,23.10
2018-06-10T18:03:22.845Z,23.00
2018-06-10T18:05:57.650Z,23.10
2018-06-10T18:08:31.966Z,23.10
2018-06-10T18:11:06.917Z,23.10
2018-06-10T18:13:41.151Z,23.40
2018-06-10T18:16:16.034Z,24.50
2018-06-10T18:21:24.911Z,25.60
2018-06-10T18:24:00.087Z,25.60
2018-06-10T18:26:34.461Z,26.40
2018-06-10T18:29:08.763Z,26.70
2018-06-10T18:31:43.257Z,26.70
2018-06-10T18:34:17.547Z,25.90
2018-06-10T18:36:55.567Z,25.80
2018-06-10T18:39:34.301Z,25.40
2018-06-10T18:44:43.018Z,23.80
2018-06-10T18:47:17.449Z,23.30
2018-06-10T18:49:52.677Z,23.10
2018-06-10T18:52:28.117Z,22.70
2018-06-10T18:55:02.433Z,22.50
2018-06-10T18:57:37.123Z,22.30
2018-06-10T19:00:15.946Z,22.10
2018-06-10T19:02:51.077Z,21.90
2018-06-10T19:05:25.346Z,21.90
2018-06-10T19:08:00.043Z,21.70
2018-06-10T19:10:36.316Z,21.60
2018-06-10T19:13:10.972Z,21.40
2018-06-10T19:15:45.515Z,21.30
2018-06-10T19:18:20.086Z,21.20
2018-06-10T19:20:54.449Z,21.10
2018-06-10T19:23:30.235Z,21.10
2018-06-10T19:26:05.233Z,20.80
2018-06-10T19:28:39.762Z,20.70
2018-06-10T19:31:14.500Z,20.70
2018-06-10T19:33:48.749Z,20.60
2018-06-10T19:36:23.118Z,20.50
2018-06-10T19:38:57.598Z,20.40
2018-06-10T19:41:32.014Z,20.40
2018-06-10T19:44:06.333Z,20.20
2018-06-10T19:46:40.888Z,20.10
2018-06-10T19:49:15.269Z,20.10
2018-06-10T19:51:49.703Z,20.00
2018-06-10T19:54:23.924Z,19.90
2018-06-10T19:56:58.345Z,19.80
2018-06-10T19:59:33.060Z,19.80
2018-06-10T20:02:07.693Z,19.70
2018-06-10T20:04:42.012Z,19.60
2018-06-10T20:07:16.388Z,19.60
2018-06-10T20:09:50.911Z,19.50
2018-06-10T20:12:25.340Z,19.40
2018-06-10T20:15:02.182Z,19.30
2018-06-10T20:17:36.925Z,19.20
2018-06-10T20:20:11.318Z,19.10
2018-06-10T20:22:45.562Z,19.10
2018-06-10T20:25:20.222Z,18.90
2018-06-10T20:27:54.785Z,18.90
2018-06-10T20:30:29.280Z,18.80
2018-06-10T20:33:03.841Z,18.70
2018-06-10T20:35:39.224Z,18.60
2018-06-10T20:38:13.701Z,18.60
2018-06-10T20:40:48.158Z,18.50
2018-06-10T20:45:56.448Z,18.30
2018-06-10T20:48:30.829Z,18.20
2018-06-10T20:51:05.184Z,18.10
2018-06-10T20:53:39.665Z,18.10
2018-06-10T20:56:14.129Z,18.00
2018-06-10T20:58:48.361Z,17.90
2018-06-10T21:01:22.783Z,17.90
2018-06-10T21:03:57.045Z,17.80
2018-06-10T21:06:31.676Z,17.70
2018-06-10T21:09:08.505Z,17.70
2018-06-10T21:11:43.882Z,17.60
2018-06-10T21:14:18.302Z,17.50
2018-06-10T21:16:52.693Z,17.50
2018-06-10T21:19:27.017Z,17.40
2018-06-10T21:22:01.448Z,17.40
2018-06-10T21:24:35.749Z,17.30
2018-06-10T21:27:11.109Z,17.30
2018-06-10T21:29:45.504Z,17.20
2018-06-10T21:32:19.956Z,17.20
2018-06-10T21:37:28.460Z,17.00
2018-06-10T21:40:02.918Z,17.00
2018-06-10T21:42:37.204Z,16.90
2018-06-10T21:45:11.548Z,16.90
2018-06-10T21:47:45.951Z,16.80
2018-06-10T21:50:20.204Z,16.80
2018-06-10T21:52:54.558Z,16.70
2018-06-10T21:55:29.082Z,16.70
2018-06-10T21:58:03.501Z,16.60
2018-06-10T22:00:37.977Z,16.60
2018-06-10T22:03:12.719Z,16.60
2018-06-10T22:05:47.828Z,16.50
2018-06-10T22:08:22.049Z,16.50
2018-06-10T22:10:56.482Z,16.40
2018-06-10T22:13:30.890Z,16.40
2018-06-10T22:16:05.661Z,16.40
2018-06-10T22:18:40.153Z,16.30
2018-06-10T22:21:14.560Z,16.30
2018-06-10T22:23:48.992Z,16.30
2018-06-10T22:26:23.314Z,16.30
2018-06-10T22:28:57.640Z,16.20
2018-06-10T22:31:31.914Z,16.20
2018-06-10T22:34:06.349Z,16.10
2018-06-10T22:36:40.826Z,16.10
2018-06-10T22:39:15.132Z,16.10
2018-06-10T22:41:49.392Z,16.00
2018-06-10T22:46:57.883Z,15.90
2018-06-10T22:49:32.168Z,15.90
2018-06-10T22:52:06.804Z,15.90
2018-06-10T22:54:42.276Z,15.90
2018-06-10T22:57:16.533Z,15.80
2018-06-10T22:59:51.043Z,15.80
2018-06-10T23:02:25.367Z,15.70
2018-06-10T23:04:59.789Z,15.80
2018-06-10T23:07:34.415Z,15.80
2018-06-10T23:10:08.740Z,15.70
2018-06-10T23:12:43.530Z,15.70
2018-06-10T23:15:17.993Z,15.60
2018-06-10T23:17:52.228Z,15.60
2018-06-10T23:20:27.217Z,15.60
2018-06-10T23:23:01.717Z,15.60
2018-06-10T23:25:36.076Z,15.60
2018-06-10T23:28:10.396Z,15.50
2018-06-10T23:30:44.786Z,15.50
2018-06-10T23:33:19.098Z,15.50
2018-06-10T23:35:53.264Z,15.40
2018-06-10T23:38:27.536Z,15.40
2018-06-10T23:41:01.926Z,15.40
2018-06-10T23:43:36.356Z,15.40
2018-06-10T23:46:10.837Z,15.30
2018-06-10T23:48:45.125Z,15.40
2018-06-10T23:51:19.470Z,15.30
2018-06-10T23:53:53.726Z,15.20
2018-06-10T23:56:28.088Z,15.20
2018-06-10T23:59:02.325Z,15.20
